Time;durP1;ratioP1;P1;durP2;ratioP2;P2;SDS_P1;SDS_P2;PMS_P1;PMS_P2;Temp;Humidity;BMP_temperature;BMP_pressure;BME280_temperature;BME280_humidity;BME280_pressure;Samples;Min_cycle;Max_cycle;Signal;HPM_P1;HPM_P2
2022/06/08 00:00:30;;;;;;;3.63;3.30;;;;;;;22.77;52.36;99230.31;4141589;28;20233;-70
2022/06/08 00:02:32;;;;;;;3.23;2.83;;;;;;;22.61;52.61;99237.47;4133058;28;20762;-69
2022/06/08 00:04:34;;;;;;;3.77;3.10;;;;;;;22.82;52.28;99238.50;4139918;28;20670;-70
2022/06/08 00:06:36;;;;;;;3.50;3.20;;;;;;;21.76;54.50;99232.13;4142225;28;20233;-70
2022/06/08 00:08:38;;;;;;;4.83;3.67;;;;;;;20.85;56.26;99230.13;4157389;28;20298;-70
2022/06/08 00:10:40;;;;;;;5.37;3.10;;;;;;;22.51;52.79;99226.47;4160458;28;20676;-70
2022/06/08 00:12:42;;;;;;;8.17;3.70;;;;;;;22.91;52.20;99214.50;4159509;28;20270;-70
2022/06/08 00:14:45;;;;;;;5.43;3.70;;;;;;;22.99;51.51;99228.44;4150673;28;20237;-70
2022/06/08 00:16:47;;;;;;;4.37;3.53;;;;;;;21.74;54.03;99234.25;4141698;28;20347;-70
2022/06/08 00:18:49;;;;;;;5.60;3.70;;;;;;;21.37;55.18;99229.25;4142537;28;20233;-71
2022/06/08 00:20:50;;;;;;;4.87;3.57;;;;;;;22.27;53.60;99216.66;4142044;28;20233;-70
2022/06/08 00:22:53;;;;;;;4.07;3.67;;;;;;;21.03;56.03;99218.38;4148483;28;20240;-70
2022/06/08 00:24:55;;;;;;;5.83;3.70;;;;;;;21.31;55.98;99205.91;4147114;28;20256;-70
2022/06/08 00:26:57;;;;;;;5.87;3.60;;;;;;;22.03;54.40;99191.66;4142744;28;20307;-70
2022/06/08 00:28:58;;;;;;;5.47;4.00;;;;;;;22.32;53.30;99213.25;4144028;28;20287;-70
2022/06/08 00:31:01;;;;;;;4.97;3.73;;;;;;;22.13;53.47;99219.97;4141838;28;20272;-71
2022/06/08 00:33:03;;;;;;;4.43;3.70;;;;;;;21.25;56.21;99199.59;4156213;28;20233;-70
2022/06/08 00:35:06;;;;;;;5.20;3.87;;;;;;;21.51;55.39;99191.91;4146663;28;20237;-71
2022/06/08 00:37:07;;;;;;;6.17;4.00;;;;;;;21.82;54.91;99178.91;4143262;28;20283;-71
2022/06/08 00:39:09;;;;;;;6.17;3.97;;;;;;;21.75;55.31;99176.38;4143526;28;20983;-70
2022/06/08 00:41:23;;;;;;;4.57;3.80;;;;;;;21.57;55.56;99188.22;4141281;28;20241;-70
2022/06/08 00:43:26;;;;;;;4.60;4.00;;;;;;;22.62;52.84;99182.19;4142905;28;21055;-71
2022/06/08 00:45:29;;;;;;;7.67;4.00;;;;;;;22.41;53.00;99198.19;4145697;28;20235;-70
2022/06/08 00:47:36;;;;;;;6.53;4.50;;;;;;;22.03;54.40;99190.84;4150976;28;20777;-71
2022/06/08 00:49:57;;;;;;;7.30;4.20;;;;;;;22.95;51.71;99194.78;4155176;28;20228;-71
2022/06/08 00:52:01;;;;;;;7.97;4.03;;;;;;;22.42;52.82;99202.53;4142485;28;20233;-71
2022/06/08 00:54:09;;;;;;;5.10;4.30;;;;;;;22.77;52.23;99198.63;4130022;28;20230;-70
2022/06/08 00:56:22;;;;;;;5.20;4.20;;;;;;;22.87;51.86;99208.75;4131283;28;20225;-70
2022/06/08 00:58:29;;;;;;;5.17;4.40;;;;;;;22.54;52.60;99207.84;4143031;28;21160;-70
2022/06/08 01:00:39;;;;;;;4.67;3.63;;;;;;;21.81;53.93;99217.84;4142948;28;20319;-71
2022/06/08 01:02:41;;;;;;;4.70;4.03;;;;;;;21.19;56.07;99211.34;4142446;28;20233;-70
2022/06/08 01:04:43;;;;;;;4.73;4.03;;;;;;;21.92;54.08;99203.44;4142257;28;20264;-71
2022/06/08 01:06:52;;;;;;;4.90;4.33;;;;;;;21.88;54.30;99196.84;4144480;28;20295;-71
2022/06/08 01:08:54;;;;;;;4.93;4.33;;;;;;;22.20;53.50;99199.78;4160515;28;20235;-71
2022/06/08 01:10:59;;;;;;;4.20;3.80;;;;;;;22.01;53.97;99199.22;4155528;28;20857;-71
2022/06/08 01:13:04;;;;;;;5.00;4.50;;;;;;;21.99;53.79;99200.53;4152006;28;20232;-71
2022/06/08 01:15:07;;;;;;;4.90;4.40;;;;;;;22.48;52.58;99203.41;4141629;28;20287;-71
2022/06/08 01:17:12;;;;;;;5.90;4.47;;;;;;;22.75;52.30;99200.75;4144260;28;20295;-71
2022/06/08 01:19:14;;;;;;;8.50;4.40;;;;;;;22.86;51.67;99199.00;4148393;28;20286;-71
2022/06/08 01:21:22;;;;;;;5.93;4.03;;;;;;;22.35;52.53;99212.72;4147321;28;20266;-71
2022/06/08 01:23:24;;;;;;;5.93;4.47;;;;;;;22.21;53.02;99220.34;4141550;28;20224;-71
2022/06/08 01:25:33;;;;;;;6.97;4.47;;;;;;;22.70;52.24;99206.13;4140569;28;21071;-71
2022/06/08 01:28:02;;;;;;;5.83;4.43;;;;;;;22.43;52.75;99214.19;4143706;28;20233;-71
2022/06/08 01:30:24;;;;;;;4.90;4.27;;;;;;;23.04;51.48;99202.47;4142288;28;21002;-72
2022/06/08 01:32:33;;;;;;;6.70;4.23;;;;;;;21.67;54.17;99209.25;4150089;28;20244;-71
2022/06/08 01:34:39;;;;;;;5.73;4.00;;;;;;;22.46;52.75;99182.00;4158052;28;20285;-71
2022/06/08 01:36:43;;;;;;;8.27;4.33;;;;;;;22.43;52.74;99193.31;4158632;28;20314;-70
2022/06/08 01:38:57;;;;;;;7.27;4.60;;;;;;;22.36;52.62;99198.13;4159700;28;20282;-71
2022/06/08 01:40:58;;;;;;;5.63;4.20;;;;;;;21.25;55.42;99198.78;4146542;28;20346;-71
2022/06/08 01:43:25;;;;;;;9.83;4.33;;;;;;;22.42;53.03;99180.03;4142078;28;20291;-71
2022/06/08 01:45:45;;;;;;;7.00;4.30;;;;;;;21.51;55.32;99179.22;4141158;28;20236;-71
2022/06/08 01:48:13;;;;;;;5.20;3.90;;;;;;;22.22;53.17;99183.25;4142596;28;20295;-71
2022/06/08 01:50:23;;;;;;;7.30;4.30;;;;;;;21.94;53.82;99190.47;4142987;28;20229;-71
2022/06/08 01:52:28;;;;;;;7.87;4.17;;;;;;;21.32;54.70;99194.03;4134986;28;20291;-71
2022/06/08 01:54:58;;;;;;;5.97;4.37;;;;;;;21.57;54.24;99184.72;4135205;28;20229;-70
2022/06/08 01:57:29;;;;;;;4.73;4.00;;;;;;;21.61;54.03;99175.84;4136938;28;20295;-70
2022/06/08 01:59:31;;;;;;;6.30;3.70;;;;;;;21.52;53.84;99182.72;4140758;28;20233;-71
2022/06/08 02:01:45;;;;;;;6.13;4.07;;;;;;;21.59;53.83;99172.56;4135204;28;20871;-71
2022/06/08 02:04:11;;;;;;;4.87;3.67;;;;;;;21.49;54.15;99172.41;4141633;28;20287;-71
2022/06/08 02:06:15;;;;;;;4.07;3.50;;;;;;;21.67;52.91;99179.50;4141433;28;20225;-71
2022/06/08 02:08:51;;;;;;;5.10;4.40;;;;;;;21.95;52.90;99164.19;4157423;28;20237;-71
2022/06/08 02:11:10;;;;;;;4.67;3.70;;;;;;;21.99;52.71;99168.06;4134319;28;20874;-70
2022/06/08 02:13:19;;;;;;;10.47;3.90;;;;;;;21.62;53.17;99171.25;4139799;28;20233;-70
2022/06/08 02:15:30;;;;;;;6.00;4.00;;;;;;;22.15;52.43;99155.56;4144646;28;20232;-71
2022/06/08 02:17:45;;;;;;;7.73;4.20;;;;;;;21.58;52.83;99178.22;4133621;28;20241;-71
2022/06/08 02:19:55;;;;;;;4.47;3.90;;;;;;;21.48;53.10;99181.59;4142898;28;20698;-71
2022/06/08 02:22:22;;;;;;;4.80;3.43;;;;;;;21.24;53.83;99175.50;4140918;28;20228;-71
2022/06/08 02:24:34;;;;;;;5.10;3.50;;;;;;;21.58;52.96;99162.81;4142110;28;20225;-70
2022/06/08 02:26:41;;;;;;;7.13;3.80;;;;;;;21.82;52.71;99166.19;4134998;28;20237;-71
2022/06/08 02:29:08;;;;;;;6.73;3.80;;;;;;;20.54;54.94;99164.69;4141931;28;20237;-70
2022/06/08 02:31:23;;;;;;;4.10;3.60;;;;;;;21.83;52.43;99145.34;4140833;28;20280;-71
2022/06/08 02:36:00;;;;;;;6.33;3.30;;;;;;;20.95;53.89;99151.19;4135189;28;20237;-71
2022/06/08 02:38:08;;;;;;;3.80;3.10;;;;;;;21.22;53.00;99151.41;4115235;28;20222;-71
2022/06/08 02:40:18;;;;;;;6.13;3.80;;;;;;;19.60;55.94;99167.44;4141011;28;20237;-71
2022/06/08 02:42:35;;;;;;;6.43;3.30;;;;;;;21.78;51.92;99131.75;4140962;28;20232;-71
2022/06/08 02:44:39;;;;;;;4.47;3.33;;;;;;;20.91;53.21;99158.94;4140878;28;20294;-71
2022/06/08 02:46:49;;;;;;;7.00;3.60;;;;;;;21.29;52.42;99146.69;4141130;28;20295;-70
2022/06/08 02:48:52;;;;;;;5.10;3.27;;;;;;;21.45;52.31;99139.63;4142083;28;22449;-70
2022/06/08 02:50:56;;;;;;;7.83;3.43;;;;;;;20.01;55.13;99160.28;4140508;28;20244;-71
2022/06/08 02:53:16;;;;;;;8.53;3.73;;;;;;;20.79;53.67;99148.19;4144484;28;20693;-71
2022/06/08 02:55:30;;;;;;;8.07;3.40;;;;;;;21.02;53.50;99124.81;4140199;28;20674;-71
2022/06/08 02:57:47;;;;;;;5.47;3.50;;;;;;;19.74;55.99;99143.75;4141854;28;20229;-71
2022/06/08 03:00:05;;;;;;;7.43;3.43;;;;;;;20.30;54.87;99133.41;4142429;28;20259;-71
2022/06/08 03:02:34;;;;;;;6.53;3.80;;;;;;;20.17;54.88;99147.97;4137883;28;20287;-70
2022/06/08 03:05:11;;;;;;;4.73;3.67;;;;;;;20.64;55.02;99112.78;4136403;28;20237;-70
2022/06/08 03:07:20;;;;;;;6.67;4.13;;;;;;;20.41;54.63;99137.97;4136175;28;20236;-71
2022/06/08 03:09:23;;;;;;;10.97;4.10;;;;;;;21.09;53.37;99127.38;4158739;28;20646;-70
2022/06/08 03:11:30;;;;;;;5.30;3.97;;;;;;;21.81;51.88;99125.84;4150697;28;20287;-71
2022/06/08 03:13:44;;;;;;;5.80;3.60;;;;;;;20.50;55.22;99120.34;4149921;28;20239;-71
2022/06/08 03:15:52;;;;;;;7.90;3.70;;;;;;;20.86;54.16;99117.50;4155619;28;20271;-71
2022/06/08 03:17:53;;;;;;;5.63;3.93;;;;;;;20.97;53.67;99125.56;4158968;28;20247;-71
2022/06/08 03:19:55;;;;;;;8.70;4.30;;;;;;;21.56;52.56;99116.25;4158269;28;20676;-71
2022/06/08 03:21:57;;;;;;;7.70;4.10;;;;;;;21.80;51.92;99111.50;4157000;28;20240;-70
2022/06/08 03:23:59;;;;;;;6.43;3.83;;;;;;;22.13;51.19;99127.91;4147591;28;20674;-71
2022/06/08 03:26:01;;;;;;;6.47;4.10;;;;;;;21.47;52.55;99142.09;4137057;28;20652;-70
2022/06/08 03:28:04;;;;;;;7.87;4.30;;;;;;;21.36;52.89;99141.09;4142028;28;20228;-70
2022/06/08 03:30:07;;;;;;;5.70;3.80;;;;;;;21.57;52.47;99133.31;4141676;28;20237;-71
2022/06/08 03:32:09;;;;;;;6.03;4.43;;;;;;;21.96;51.80;99122.53;4135994;28;20225;-71
2022/06/08 03:34:11;;;;;;;7.17;3.90;;;;;;;21.96;51.74;99138.78;4137241;28;20230;-71
2022/06/08 03:36:13;;;;;;;5.57;4.40;;;;;;;21.61;52.16;99142.56;4140819;28;20281;-71
2022/06/08 03:38:14;;;;;;;6.30;4.67;;;;;;;21.81;51.70;99132.06;4141486;28;20222;-72
2022/06/08 03:40:16;;;;;;;6.33;4.90;;;;;;;22.06;51.08;99131.63;4139861;28;20610;-69
2022/06/08 03:42:18;;;;;;;6.70;4.60;;;;;;;22.37;50.36;99126.63;4142138;28;20229;-69
2022/06/08 03:44:20;;;;;;;5.70;4.07;;;;;;;22.49;50.45;99131.94;4140494;28;20233;-69
2022/06/08 03:46:22;;;;;;;9.10;4.27;;;;;;;22.19;50.82;99143.97;4143359;28;20291;-69
2022/06/08 03:48:24;;;;;;;4.30;3.80;;;;;;;22.04;50.78;99141.88;4144829;28;20829;-71
2022/06/08 03:50:29;;;;;;;5.87;3.97;;;;;;;21.65;51.75;99151.88;4160188;28;20244;-71
2022/06/08 03:52:36;;;;;;;8.17;5.50;;;;;;;21.71;51.82;99148.16;4160203;28;20232;-69
2022/06/08 03:54:42;;;;;;;8.13;4.43;;;;;;;22.04;51.12;99135.66;4148033;28;20287;-69
2022/06/08 03:56:48;;;;;;;6.33;4.10;;;;;;;21.99;51.04;99132.88;4144992;28;20233;-69
2022/06/08 03:58:54;;;;;;;6.97;4.53;;;;;;;22.20;50.65;99123.13;4145328;28;20602;-69
2022/06/08 04:00:56;;;;;;;5.73;4.33;;;;;;;21.56;51.65;99137.88;4144244;28;20609;-69
2022/06/08 04:02:58;;;;;;;6.27;3.67;;;;;;;21.44;51.58;99126.34;4132942;28;20265;-69
2022/06/08 04:05:01;;;;;;;7.50;4.23;;;;;;;21.28;51.92;99117.97;4133368;28;20233;-70
2022/06/08 04:07:04;;;;;;;9.10;3.87;;;;;;;21.53;51.27;99119.47;4145568;28;20705;-69
2022/06/08 04:09:06;;;;;;;7.07;3.63;;;;;;;22.03;50.06;99113.16;4160907;28;20766;-69
2022/06/08 04:11:07;;;;;;;5.10;3.50;;;;;;;22.03;49.91;99115.06;4152529;28;20267;-70
2022/06/08 04:13:09;;;;;;;6.40;3.50;;;;;;;21.81;50.37;99123.16;4144614;28;20237;-69
2022/06/08 04:15:41;;;;;;;5.97;3.60;;;;;;;21.81;50.17;99120.44;4143829;28;20623;-70
2022/06/08 04:17:33;;;;;;;6.43;3.80;;;;;;;21.83;50.21;99112.88;4144045;28;20232;-69
2022/06/08 04:19:35;;;;;;;5.90;3.80;;;;;;;21.33;51.10;99123.47;4153469;28;20229;-70
2022/06/08 04:21:36;;;;;;;6.53;4.00;;;;;;;21.02;51.62;99124.00;4143766;28;20331;-69
2022/06/08 04:23:40;;;;;;;6.93;4.03;;;;;;;21.38;50.82;99116.50;4144954;28;20241;-70
2022/06/08 04:25:43;;;;;;;4.80;3.40;;;;;;;21.35;50.69;99121.34;4143731;28;21010;-70
2022/06/08 04:27:45;;;;;;;6.07;3.87;;;;;;;21.34;51.00;99125.13;4144022;28;20244;-70
2022/06/08 04:29:48;;;;;;;8.07;4.30;;;;;;;21.46;50.62;99122.34;4144547;28;20859;-70
2022/06/08 04:31:50;;;;;;;11.20;4.00;;;;;;;21.52;50.82;99139.47;4143159;28;20242;-70
2022/06/08 04:33:53;;;;;;;4.60;3.40;;;;;;;21.44;50.67;99127.16;4144522;28;20299;-70
2022/06/08 04:35:55;;;;;;;7.10;3.97;;;;;;;22.34;49.35;99119.00;4143635;28;20230;-70
2022/06/08 04:37:57;;;;;;;8.23;4.00;;;;;;;21.41;51.07;99133.06;4143209;28;20226;-70
2022/06/08 04:39:58;;;;;;;7.70;4.40;;;;;;;21.97;50.10;99110.66;4145112;28;20283;-70
2022/06/08 04:42:00;;;;;;;6.17;3.97;;;;;;;22.12;49.75;99126.25;4144037;28;20237;-70
2022/06/08 04:44:03;;;;;;;7.23;4.30;;;;;;;21.40;51.26;99131.44;4141166;28;20229;-70
2022/06/08 04:46:05;;;;;;;8.87;4.37;;;;;;;21.64;51.05;99126.69;4155307;28;20717;-70
2022/06/08 04:48:08;;;;;;;11.03;3.90;;;;;;;21.30;51.61;99131.25;4148536;28;20240;-70
2022/06/08 04:50:11;;;;;;;7.60;4.60;;;;;;;20.92;52.33;99148.94;4148781;28;20228;-70
2022/06/08 04:52:12;;;;;;;5.70;4.10;;;;;;;21.70;50.94;99103.25;4149609;28;20603;-70
2022/06/08 04:54:14;;;;;;;7.53;4.53;;;;;;;21.70;51.13;99112.19;4144097;28;20791;-70
2022/06/08 04:56:16;;;;;;;7.17;4.50;;;;;;;21.58;51.18;99119.53;4142917;28;20229;-70
2022/06/08 04:58:20;;;;;;;6.57;4.23;;;;;;;21.54;51.43;99121.09;4144557;28;20225;-70
2022/06/08 05:00:23;;;;;;;6.27;3.83;;;;;;;21.44;51.46;99116.34;4150790;28;20229;-69
2022/06/08 05:02:44;;;;;;;8.43;4.83;;;;;;;21.54;51.08;99123.78;4142217;28;20300;-70
2022/06/08 05:04:45;;;;;;;6.33;4.47;;;;;;;21.68;51.23;99111.63;4145907;28;20752;-69
2022/06/08 05:06:47;;;;;;;7.23;4.40;;;;;;;21.54;51.60;99110.28;4148794;28;20298;-70
2022/06/08 05:08:49;;;;;;;8.60;4.63;;;;;;;22.62;49.52;99092.78;4149880;28;20671;-70
2022/06/08 05:10:55;;;;;;;5.87;4.33;;;;;;;22.24;50.14;99108.03;4139025;28;20233;-70
2022/06/08 05:12:58;;;;;;;9.90;4.30;;;;;;;22.49;49.69;99095.88;4140857;28;20815;-70
2022/06/08 05:14:59;;;;;;;8.20;4.20;;;;;;;22.48;49.84;99099.69;4143395;28;20291;-70
2022/06/08 05:17:02;;;;;;;10.63;3.90;;;;;;;22.47;49.71;99098.84;4142143;28;20236;-70
2022/06/08 05:19:04;;;;;;;6.63;3.70;;;;;;;22.30;50.53;99098.91;4143784;28;20233;-70
2022/06/08 05:21:05;;;;;;;6.77;3.97;;;;;;;21.46;51.75;99110.69;4144500;28;20237;-70
2022/06/08 05:23:11;;;;;;;5.40;3.77;;;;;;;21.46;52.21;99094.44;4145114;28;20820;-70
2022/06/08 05:25:16;;;;;;;8.20;4.07;;;;;;;21.92;51.51;99082.44;4140185;28;20237;-70
2022/06/08 05:27:18;;;;;;;5.67;3.33;;;;;;;21.81;50.82;99104.19;4143942;28;20226;-69
2022/06/08 05:29:20;;;;;;;7.40;3.60;;;;;;;21.77;51.20;99103.88;4144310;28;20286;-69
2022/06/08 05:31:21;;;;;;;7.40;3.80;;;;;;;21.53;51.87;99114.88;4142927;28;20249;-70
2022/06/08 05:33:26;;;;;;;5.60;3.30;;;;;;;21.68;51.39;99095.38;4142117;28;20340;-70
2022/06/08 05:35:29;;;;;;;4.97;3.27;;;;;;;22.30;50.00;99082.66;4142875;28;20229;-70
2022/06/08 05:37:31;;;;;;;9.90;4.07;;;;;;;22.25;50.19;99079.88;4143583;28;20283;-70
2022/06/08 05:39:32;;;;;;;5.03;3.73;;;;;;;22.39;49.94;99083.03;4160791;28;20228;-69
2022/06/08 05:41:34;;;;;;;6.40;3.50;;;;;;;22.01;50.65;99104.47;4158686;28;20773;-69
2022/06/08 05:43:36;;;;;;;6.40;3.50;;;;;;;22.35;49.95;99090.84;4159132;28;20293;-69
2022/06/08 05:45:39;;;;;;;5.80;3.63;;;;;;;22.49;49.78;99083.16;4144060;28;20682;-70
2022/06/08 05:47:41;;;;;;;7.00;3.60;;;;;;;21.91;50.42;99110.56;4143350;28;20237;-69
2022/06/08 05:49:49;;;;;;;6.40;3.70;;;;;;;21.59;51.66;99106.81;4144270;28;20260;-70
2022/06/08 05:51:51;;;;;;;4.23;3.37;;;;;;;22.19;51.05;99073.56;4141587;28;20293;-70
2022/06/08 05:53:52;;;;;;;5.87;3.60;;;;;;;22.50;50.17;99086.69;4146049;28;20232;-70
2022/06/08 05:55:54;;;;;;;7.77;3.67;;;;;;;22.66;50.05;99077.66;4157950;28;20225;-70
2022/06/08 05:57:56;;;;;;;6.23;3.37;;;;;;;22.06;51.14;99082.06;4159858;28;20224;-70
2022/06/08 05:59:58;;;;;;;6.33;3.50;;;;;;;22.34;50.28;99075.69;4158441;28;20233;-70
2022/06/08 06:01:59;;;;;;;4.27;3.30;;;;;;;22.86;48.86;99076.19;4155286;28;20233;-70
2022/06/08 06:04:03;;;;;;;7.33;3.23;;;;;;;22.84;49.04;99080.00;4149988;28;20329;-70
2022/06/08 06:06:04;;;;;;;7.90;3.67;;;;;;;22.72;49.06;99084.75;4152575;28;21034;-70
2022/06/08 06:08:07;;;;;;;5.83;3.73;;;;;;;22.39;50.04;99089.28;4155206;28;20722;-70
2022/06/08 06:10:11;;;;;;;7.30;2.80;;;;;;;22.95;49.03;99070.09;4158845;28;20286;-70
2022/06/08 06:12:12;;;;;;;8.47;3.50;;;;;;;22.50;50.21;99089.41;4150612;28;20234;-69
2022/06/08 06:14:14;;;;;;;5.37;3.50;;;;;;;22.50;50.54;99065.00;4144332;28;20233;-70
2022/06/08 06:16:16;;;;;;;7.73;3.63;;;;;;;22.60;50.48;99065.94;4145395;28;20957;-69
2022/06/08 06:18:18;;;;;;;7.47;3.67;;;;;;;22.60;50.17;99071.34;4151925;28;20229;-70
2022/06/08 06:20:20;;;;;;;6.03;3.40;;;;;;;22.15;51.28;99080.56;4149557;28;20230;-70
2022/06/08 06:22:22;;;;;;;6.50;3.30;;;;;;;22.98;49.71;99038.94;4146909;28;20319;-69
2022/06/08 06:24:25;;;;;;;7.87;3.77;;;;;;;22.54;50.02;99080.50;4142422;28;20237;-70
2022/06/08 06:26:27;;;;;;;4.97;3.07;;;;;;;22.21;51.29;99062.50;4145710;28;20303;-69
2022/06/08 06:28:28;;;;;;;4.67;3.20;;;;;;;22.77;50.03;99052.28;4147256;28;20327;-70
2022/06/08 06:30:30;;;;;;;7.00;3.40;;;;;;;22.91;49.85;99058.13;4146723;28;20318;-70
2022/06/08 06:32:34;;;;;;;4.57;2.97;;;;;;;23.24;48.77;99045.38;4141922;28;20241;-70
2022/06/08 06:34:36;;;;;;;5.50;3.50;;;;;;;22.33;51.22;99051.56;4139826;28;20229;-69
2022/06/08 06:36:37;;;;;;;6.57;3.27;;;;;;;22.57;50.11;99063.72;4141775;28;20237;-70
2022/06/08 06:38:39;;;;;;;5.87;3.00;;;;;;;22.61;49.99;99056.75;4142203;28;20318;-70
2022/06/08 06:40:41;;;;;;;6.47;3.33;;;;;;;21.91;51.99;99050.22;4142523;28;21198;-70
2022/06/08 06:42:43;;;;;;;5.93;2.93;;;;;;;22.68;50.93;99021.31;4139276;28;20233;-70
2022/06/08 06:44:45;;;;;;;5.53;3.30;;;;;;;22.49;50.94;99045.25;4143852;28;20734;-70
2022/06/08 06:46:47;;;;;;;8.00;2.90;;;;;;;23.36;49.19;99020.78;4146798;28;20734;-70
2022/06/08 06:48:49;;;;;;;5.03;3.07;;;;;;;23.00;49.91;99037.59;4141346;28;20319;-70
2022/06/08 06:50:51;;;;;;;5.13;3.00;;;;;;;21.71;51.40;99037.22;4140925;28;20275;-70
2022/06/08 06:52:53;;;;;;;6.50;2.93;;;;;;;23.40;49.23;99000.19;4140893;28;20723;-69
2022/06/08 06:54:54;;;;;;;5.87;3.60;;;;;;;23.14;49.67;99008.16;4142035;28;20229;-69
2022/06/08 06:56:56;;;;;;;6.77;3.07;;;;;;;23.29;48.90;99015.56;4142393;28;20229;-70
2022/06/08 06:58:59;;;;;;;5.03;2.80;;;;;;;22.51;50.97;99023.28;4144266;28;20236;-70
2022/06/08 07:01:01;;;;;;;5.63;2.80;;;;;;;22.36;50.70;99016.66;4158231;28;20232;-70
2022/06/08 07:03:04;;;;;;;9.60;2.90;;;;;;;22.80;49.97;99013.81;4148744;28;20232;-69
2022/06/08 07:05:06;;;;;;;6.40;2.60;;;;;;;23.47;48.85;99019.75;4142039;28;20231;-70
2022/06/08 07:07:09;;;;;;;7.07;2.57;;;;;;;23.16;49.14;99019.53;4137643;28;20287;-70
2022/06/08 07:09:10;;;;;;;5.97;2.70;;;;;;;22.59;49.34;99031.78;4140234;28;20271;-70
2022/06/08 07:13:33;;;;;;;5.40;2.90;;;;;;;22.68;49.40;99021.31;4136095;28;20229;-70
2022/06/08 07:15:36;;;;;;;5.90;2.57;;;;;;;23.14;48.32;99029.84;4141254;28;20225;-70
2022/06/08 07:17:37;;;;;;;5.10;2.60;;;;;;;23.25;48.78;99003.63;4139642;28;20229;-70
2022/06/08 07:19:39;;;;;;;5.90;2.67;;;;;;;23.36;48.39;99009.91;4145854;28;20617;-70
2022/06/08 07:21:41;;;;;;;7.33;2.70;;;;;;;23.36;48.32;99021.56;4145477;28;20241;-70
2022/06/08 07:23:43;;;;;;;4.30;2.60;;;;;;;23.16;48.71;99016.03;4144908;28;20232;-70
2022/06/08 07:25:45;;;;;;;6.33;2.80;;;;;;;23.19;47.89;99016.31;4143891;28;20233;-70
2022/06/08 07:27:47;;;;;;;6.67;2.60;;;;;;;23.16;48.54;99010.59;4143220;28;20237;-70
2022/06/08 07:29:50;;;;;;;5.03;2.90;;;;;;;23.27;48.34;99009.59;4147153;28;20283;-70
2022/06/08 07:31:52;;;;;;;9.77;2.80;;;;;;;22.89;48.30;99019.56;4147820;28;20237;-71
2022/06/08 07:33:54;;;;;;;7.90;2.90;;;;;;;22.88;49.29;99004.41;4143669;28;20292;-70
2022/06/08 07:35:57;;;;;;;5.97;2.93;;;;;;;24.10;47.48;98987.22;4144669;28;20658;-70
2022/06/08 07:37:58;;;;;;;5.27;2.47;;;;;;;23.33;48.41;99005.00;4144699;28;20843;-70
2022/06/08 07:40:00;;;;;;;3.70;2.70;;;;;;;22.81;47.89;99017.34;4144433;28;20744;-70
2022/06/08 07:42:03;;;;;;;5.07;2.47;;;;;;;23.49;47.77;99000.50;4144372;28;20241;-69
2022/06/08 07:44:05;;;;;;;5.37;2.20;;;;;;;23.78;46.83;99000.13;4144466;28;20642;-70
2022/06/08 07:46:07;;;;;;;5.00;2.23;;;;;;;24.13;46.66;98986.69;4143549;28;20308;-69
2022/06/08 07:50:30;;;;;;;5.45;1.80;;;;;;;24.02;46.23;98989.63;4144638;28;20302;-70
2022/06/08 07:52:32;;;;;;;7.43;2.30;;;;;;;23.99;46.02;98996.44;4141580;28;20237;-69
2022/06/08 07:54:34;;;;;;;3.13;2.00;;;;;;;24.20;46.02;98999.22;4144075;28;20773;-69
2022/06/08 07:56:36;;;;;;;5.28;2.47;;;;;;;23.64;47.05;98999.81;4154052;28;20713;-70
2022/06/08 07:58:38;;;;;;;5.30;2.27;;;;;;;23.13;47.48;98989.41;4144038;28;20748;-70
2022/06/08 08:00:43;;;;;;;5.90;2.45;;;;;;;23.62;46.53;98991.09;4144107;28;20762;-70
2022/06/08 08:02:45;;;;;;;5.35;1.75;;;;;;;24.18;46.21;98972.34;4141915;28;20792;-70
2022/06/08 08:04:46;;;;;;;3.87;1.83;;;;;;;24.06;45.59;98988.03;4143911;28;20268;-70
2022/06/08 08:06:49;;;;;;;8.50;2.33;;;;;;;23.81;46.47;98973.28;4148006;28;20290;-70
2022/06/08 08:08:50;;;;;;;6.22;2.83;;;;;;;24.56;45.03;98972.09;4160083;28;20290;-69
2022/06/08 08:10:52;;;;;;;5.40;2.33;;;;;;;23.94;45.01;98985.56;4148162;28;20233;-69
2022/06/08 08:12:55;;;;;;;5.57;2.08;;;;;;;24.80;44.24;98956.94;4143834;28;20307;-70
2022/06/08 08:14:57;;;;;;;3.28;1.80;;;;;;;24.82;44.86;98959.38;4143428;28;20316;-70
2022/06/08 08:16:58;;;;;;;5.20;2.10;;;;;;;24.39;45.04;98961.50;4144162;28;20295;-70
2022/06/08 08:19:00;;;;;;;4.07;2.03;;;;;;;24.91;43.97;98957.72;4144722;28;20304;-70
2022/06/08 08:21:02;;;;;;;9.32;2.20;;;;;;;25.03;44.52;98958.25;4144148;28;20237;-70
2022/06/08 08:23:04;;;;;;;5.72;1.98;;;;;;;24.96;44.51;98970.50;4144295;28;20233;-70
2022/06/08 08:25:06;;;;;;;4.80;2.00;;;;;;;24.72;44.39;98960.16;4143937;28;20245;-70
2022/06/08 08:27:08;;;;;;;5.38;1.85;;;;;;;24.36;45.02;98967.47;4143572;28;20233;-70
2022/06/08 08:29:10;;;;;;;4.47;2.83;;;;;;;25.31;44.30;98953.31;4141253;28;20236;-70
2022/06/08 08:31:12;;;;;;;4.38;1.95;;;;;;;24.94;44.21;98961.81;4143976;28;20245;-70
2022/06/08 08:33:14;;;;;;;4.60;1.67;;;;;;;24.84;44.42;98962.63;4146107;28;20236;-69
2022/06/08 08:35:17;;;;;;;5.32;2.55;;;;;;;25.18;44.00;98943.00;4143413;28;20372;-70
2022/06/08 08:37:19;;;;;;;10.88;3.50;;;;;;;25.07;44.06;98953.09;4143265;28;20252;-70
2022/06/08 08:39:21;;;;;;;5.40;3.13;;;;;;;25.25;44.37;98943.53;4147550;28;20229;-70
2022/06/08 08:43:49;;;;;;;5.07;2.40;;;;;;;24.86;44.22;98928.63;4139610;28;20251;-69
2022/06/08 08:46:03;;;;;;;6.05;2.10;;;;;;;24.21;44.90;98922.91;4142195;28;20240;-69
2022/06/08 08:48:11;;;;;;;7.78;2.35;;;;;;;24.37;45.08;98915.59;4150005;28;20221;-69
2022/06/08 08:50:25;;;;;;;4.13;2.22;;;;;;;24.74;44.76;98900.09;4144490;28;20293;-70
2022/06/08 08:52:38;;;;;;;8.50;2.38;;;;;;;24.56;45.17;98910.41;4131633;28;20233;-69
2022/06/08 08:54:50;;;;;;;8.73;1.95;;;;;;;24.69;45.16;98899.00;4147954;28;20232;-70
2022/06/08 08:56:55;;;;;;;5.60;2.00;;;;;;;25.08;44.64;98913.09;4145949;28;20236;-70
2022/06/08 08:59:00;;;;;;;5.43;2.10;;;;;;;25.38;44.20;98902.16;4149177;28;20229;-69
2022/06/08 09:01:13;;;;;;;3.63;1.92;;;;;;;25.34;44.42;98901.06;4148212;28;20792;-70
2022/06/08 09:03:31;;;;;;;7.68;2.55;;;;;;;25.50;44.03;98906.47;4148149;28;20225;-70
2022/06/08 09:05:33;;;;;;;4.70;2.15;;;;;;;24.73;44.58;98904.69;4135260;28;20232;-69
2022/06/08 09:07:35;;;;;;;8.57;2.72;;;;;;;24.91;44.38;98892.47;4143658;28;20236;-70
2022/06/08 09:09:37;;;;;;;8.02;2.42;;;;;;;24.42;43.86;98906.63;4145316;28;20306;-70
2022/06/08 09:11:41;;;;;;;5.10;2.00;;;;;;;24.53;44.88;98897.41;4150893;28;20229;-70
2022/06/08 09:14:16;;;;;;;4.13;2.00;;;;;;;25.22;42.99;98881.50;4154225;28;20656;-70
2022/06/08 09:16:27;;;;;;;3.25;2.00;;;;;;;24.88;43.40;98884.84;4152867;28;20233;-70
2022/06/08 09:18:39;;;;;;;6.45;2.20;;;;;;;25.36;43.06;98876.31;4143769;28;20323;-70
2022/06/08 09:20:40;;;;;;;5.07;1.98;;;;;;;25.38;43.24;98880.38;4151266;28;20244;-70
2022/06/08 09:22:48;;;;;;;3.30;1.65;;;;;;;25.01;42.74;98887.00;4153515;28;20236;-70
2022/06/08 09:24:53;;;;;;;11.25;2.00;;;;;;;24.97;43.84;98880.50;4153445;28;20281;-70
2022/06/08 09:27:05;;;;;;;3.78;2.00;;;;;;;25.58;43.41;98876.75;4161198;28;20248;-70
2022/06/08 09:29:22;;;;;;;4.95;2.00;;;;;;;25.88;43.54;98869.50;4161884;28;20232;-70
2022/06/08 09:31:28;;;;;;;4.78;2.40;;;;;;;26.31;42.02;98867.03;4165798;28;20220;-69
2022/06/08 09:33:37;;;;;;;4.20;2.00;;;;;;;25.34;44.76;98873.03;4146224;28;20229;-70
2022/06/08 09:35:52;;;;;;;3.33;2.10;;;;;;;26.18;43.40;98850.53;4145876;28;20228;-70
2022/06/08 09:37:58;;;;;;;2.58;1.50;;;;;;;25.85;42.17;98870.06;4142349;28;20229;-70
2022/06/08 09:40:01;;;;;;;5.10;1.90;;;;;;;24.44;43.74;98856.34;4143587;28;20835;-70
2022/06/08 09:42:24;;;;;;;4.65;1.90;;;;;;;25.93;42.75;98842.25;4148254;28;20966;-70
2022/06/08 09:44:37;;;;;;;7.15;1.80;;;;;;;25.67;42.59;98852.47;4141738;28;20336;-70
2022/06/08 09:52:09;;;;;;;4.07;2.10;;;;;;;25.80;42.29;98845.59;4134951;28;20279;-70
2022/06/08 09:54:55;;;;;;;3.65;1.50;;;;;;;25.69;40.74;98853.00;4137661;28;20237;-70
2022/06/08 09:57:21;;;;;;;4.28;1.40;;;;;;;26.51;41.85;98838.81;4138421;28;20233;-70
2022/06/08 09:59:43;;;;;;;2.75;1.33;;;;;;;26.10;40.06;98830.16;4145487;28;20287;-70
2022/06/08 10:01:57;;;;;;;1.95;1.17;;;;;;;25.26;40.33;98821.94;4141133;28;20315;-70
2022/06/08 10:04:29;;;;;;;3.67;1.88;;;;;;;24.66;40.17;98826.16;4142539;28;20714;-70
2022/06/08 10:06:55;;;;;;;3.40;1.40;;;;;;;23.79;41.10;98822.63;4143725;28;20313;-70
2022/06/08 10:09:07;;;;;;;2.63;1.70;;;;;;;25.40;39.78;98810.16;4158481;28;20228;-70